Private Wetterstation Wechselburg
Wetterdaten: Woche 24.04.23 - 30.04.23 (KW17)
Datum Zeit Temp. +2m Bodentemp. Temp.+5cm Temp. Wind Windchill X Diff Temp. Feuchte +2m Feuchte +5cm Luftdruck Regen Wind Richtung Sonnenschein Taupunkt Windchill Windben
24.04.2023 00:00 10,6 C 15,3 C 9,5 C 10,4 C 10,1 C 0,0 C 84 % 77 % 1004,9 hPa 0,0 l/m 0,0 km/h (0 Bft) N 0,00 h 8,0 C 10,1 C 0,0 km/h (0 Bft)
24.04.2023 01:00 10,9 C 15,0 C 10,6 C 10,9 C 10,9 C 0,1 C 86 % 80 % 1004,8 hPa 0,0 l/m 0,4 km/h (0 Bft) N 0,00 h 8,7 C 10,9 C 0,7 km/h (0 Bft)
24.04.2023 02:00 12,1 C 14,9 C 11,5 C 12,0 C 11,9 C 0,0 C 85 % 80 % 1004,3 hPa 0,0 l/m 1,8 km/h (1 Bft) S-SO 0,00 h 9,6 C 11,9 C 4,6 km/h (1 Bft)
24.04.2023 03:00 11,9 C 14,8 C 11,3 C 11,8 C 11,6 C 0,0 C 84 % 77 % 1004,1 hPa 0,0 l/m 2,4 km/h (1 Bft) SO 0,00 h 9,3 C 11,6 C 6,2 km/h (2 Bft)
24.04.2023 04:00 11,7 C 14,6 C 11,1 C 11,6 C 11,3 C 0,0 C 84 % 76 % 1003,9 hPa 0,0 l/m 2,3 km/h (1 Bft) S-SO 0,00 h 9,1 C 11,3 C 6,5 km/h (2 Bft)
24.04.2023 05:00 11,4 C 14,5 C 10,7 C 11,2 C 10,8 C 0,0 C 83 % 73 % 1003,7 hPa 0,0 l/m 1,5 km/h (1 Bft) O-SO 0,00 h 8,6 C 10,8 C 2,5 km/h (1 Bft)
24.04.2023 06:00 11,2 C 14,4 C 10,6 C 11,1 C 11,0 C 0,0 C 83 % 74 % 1003,9 hPa 0,0 l/m 2,3 km/h (1 Bft) S-SO 0,00 h 8,4 C 11,0 C 3,7 km/h (1 Bft)
24.04.2023 07:00 11,5 C 14,3 C 11,4 C 12,2 C 12,2 C 0,7 C 82 % 70 % 1004,0 hPa 0,0 l/m 1,9 km/h (1 Bft) O-SO 0,00 h 8,5 C 12,2 C 1,3 km/h (1 Bft)
24.04.2023 08:00 12,1 C 14,2 C 12,1 C 13,3 C 13,3 C 1,2 C 80 % 66 % 1004,5 hPa 0,0 l/m 3,1 km/h (1 Bft) S-SW 0,00 h 8,7 C 13,3 C 6,4 km/h (2 Bft)
24.04.2023 09:00 12,4 C 14,1 C 12,5 C 13,6 C 13,6 C 1,2 C 78 % 64 % 1004,4 hPa 0,0 l/m 1,9 km/h (1 Bft) O 0,00 h 8,7 C 13,6 C 1,5 km/h (1 Bft)
24.04.2023 10:00 13,3 C 14,1 C 13,9 C 15,6 C 15,6 C 2,3 C 74 % 59 % 1004,8 hPa 0,0 l/m 3,0 km/h (1 Bft) SW 0,00 h 8,8 C 15,6 C 5,6 km/h (1 Bft)
24.04.2023 11:00 14,0 C 14,2 C 14,8 C 16,5 C 16,5 C 2,5 C 72 % 56 % 1005,1 hPa 0,0 l/m 2,9 km/h (1 Bft) SO 0,00 h 8,9 C 16,5 C 2,4 km/h (1 Bft)
24.04.2023 12:00 14,3 C 14,2 C 15,2 C 16,7 C 16,6 C 2,4 C 68 % 52 % 1004,9 hPa 0,0 l/m 6,0 km/h (2 Bft) S-SW 0,17 h 8,4 C 16,6 C 8,9 km/h (2 Bft)
24.04.2023 13:00 14,8 C 14,1 C 16,1 C 17,7 C 17,7 C 2,9 C 57 % 42 % 1005,2 hPa 0,0 l/m 8,3 km/h (2 Bft) SW 0,25 h 6,4 C 17,7 C 12,8 km/h (3 Bft)
24.04.2023 14:00 15,3 C 14,2 C 17,0 C 18,7 C 18,7 C 3,4 C 51 % 38 % 1005,9 hPa 0,0 l/m 9,5 km/h (2 Bft) S-SW 0,50 h 5,3 C 18,7 C 13,9 km/h (3 Bft)
24.04.2023 15:00 15,7 C 14,3 C 16,5 C 19,8 C 19,8 C 4,1 C 49 % 36 % 1005,7 hPa 0,0 l/m 7,5 km/h (2 Bft) O-NO 0,83 h 5,2 C 19,8 C 10,1 km/h (2 Bft)
24.04.2023 16:00 14,7 C 14,3 C 14,9 C 16,0 C 16,1 C 1,4 C 52 % 37 % 1005,8 hPa 0,0 l/m 8,7 km/h (2 Bft) SW 0,00 h 4,8 C 16,1 C 12,8 km/h (3 Bft)
24.04.2023 17:00 14,0 C 14,4 C 14,3 C 14,7 C 14,6 C 0,7 C 54 % 39 % 1006,3 hPa 0,0 l/m 9,7 km/h (2 Bft) SW 0,00 h 4,8 C 14,6 C 12,1 km/h (2 Bft)
24.04.2023 18:00 13,1 C 14,4 C 13,1 C 13,7 C 13,7 C 0,6 C 59 % 43 % 1007,0 hPa 0,0 l/m 9,4 km/h (2 Bft) SW 0,00 h 5,2 C 13,7 C 11,6 km/h (2 Bft)
24.04.2023 19:00 12,3 C 14,3 C 11,6 C 13,0 C 13,0 C 0,7 C 60 % 45 % 1007,6 hPa 0,0 l/m 3,8 km/h (1 Bft) W-SW 0,20 h 4,7 C 13,0 C 4,7 km/h (1 Bft)
24.04.2023 20:00 11,4 C 14,2 C 10,8 C 11,4 C 11,3 C 0,1 C 62 % 47 % 1008,2 hPa 0,0 l/m 2,6 km/h (1 Bft) S-SW 0,08 h 4,5 C 11,3 C 4,2 km/h (1 Bft)
24.04.2023 21:00 10,7 C 14,2 C 10,1 C 10,6 C 10,3 C 0,0 C 65 % 49 % 1009,3 hPa 0,0 l/m 5,2 km/h (1 Bft) SW 0,00 h 4,4 C 10,2 C 7,8 km/h (2 Bft)
24.04.2023 22:00 9,9 C 14,0 C 8,8 C 9,7 C 9,4 C 0,0 C 67 % 52 % 1009,4 hPa 0,0 l/m 2,6 km/h (1 Bft) SW 0,00 h 4,1 C 9,4 C 3,3 km/h (1 Bft)
24.04.2023 23:00 9,5 C 13,9 C 8,9 C 9,4 C 9,2 C 0,0 C 71 % 55 % 1009,4 hPa 0,0 l/m 0,6 km/h (0 Bft) SW 0,00 h 4,4 C 9,2 C 1,1 km/h (1 Bft)
25.04.2023 00:00 9,0 C 13,8 C 8,3 C 8,8 C 8,3 C 0,0 C 74 % 61 % 1009,3 hPa 0,0 l/m 0,5 km/h (0 Bft) S-SW 0,00 h 4,7 C 8,3 C 0,7 km/h (0 Bft)
25.04.2023 01:00 8,0 C 13,7 C 7,0 C 7,7 C 7,2 C 0,0 C 77 % 62 % 1009,3 hPa 0,0 l/m 1,6 km/h (1 Bft) SW 0,00 h 4,2 C 7,2 C 4,0 km/h (1 Bft)
25.04.2023 02:00 6,9 C 13,5 C 5,7 C 6,5 C 5,8 C 0,0 C 79 % 64 % 1009,4 hPa 0,0 l/m 0,7 km/h (0 Bft) S-SO 0,00 h 3,4 C 5,8 C 0,8 km/h (0 Bft)
25.04.2023 03:00 5,7 C 13,6 C 4,1 C 5,2 C 4,2 C 0,0 C 80 % 67 % 1009,2 hPa 0,0 l/m 0,0 km/h (0 Bft) N 0,00 h 2,6 C 4,2 C 0,1 km/h (0 Bft)
25.04.2023 04:00 5,7 C 13,4 C 4,2 C 5,3 C 4,7 C 0,0 C 83 % 70 % 1009,1 hPa 0,0 l/m 0,8 km/h (0 Bft) SW 0,00 h 3,0 C 4,7 C 1,4 km/h (1 Bft)
25.04.2023 05:00 5,8 C 13,2 C 4,4 C 5,6 C 5,0 C 0,0 C 82 % 68 % 1009,0 hPa 0,0 l/m 0,4 km/h (0 Bft) N 0,00 h 2,9 C 5,0 C 0,7 km/h (0 Bft)
25.04.2023 06:00 5,3 C 13,1 C 4,1 C 5,1 C 4,6 C 0,0 C 81 % 68 % 1009,0 hPa 0,0 l/m 0,0 km/h (0 Bft) N 0,00 h 2,3 C 4,6 C 0,0 km/h (0 Bft)
25.04.2023 07:00 6,1 C 12,9 C 7,0 C 11,4 C 11,4 C 5,2 C 83 % 66 % 1009,4 hPa 0,0 l/m 0,1 km/h (0 Bft) N 0,92 h 3,5 C 11,4 C 0,2 km/h (0 Bft)
25.04.2023 08:00 7,9 C 12,7 C 9,0 C 10,2 C 10,2 C 2,3 C 77 % 58 % 1009,8 hPa 0,0 l/m 0,1 km/h (0 Bft) N 0,00 h 4,2 C 10,2 C 0,0 km/h (0 Bft)
25.04.2023 09:00 8,3 C 12,7 C 8,8 C 10,9 C 10,9 C 2,6 C 71 % 53 % 1009,9 hPa 0,0 l/m 1,8 km/h (1 Bft) W-SW 0,08 h 3,4 C 10,9 C 3,5 km/h (1 Bft)
25.04.2023 10:00 8,2 C 12,6 C 9,3 C 10,3 C 10,3 C 2,1 C 72 % 51 % 1010,3 hPa 0,0 l/m 2,0 km/h (1 Bft) SW 0,00 h 3,4 C 10,3 C 4,8 km/h (1 Bft)
25.04.2023 11:00 8,4 C 12,5 C 9,7 C 10,1 C 10,1 C 1,7 C 73 % 52 % 1010,8 hPa 0,0 l/m 0,4 km/h (0 Bft) SW 0,00 h 3,8 C 10,1 C 0,6 km/h (0 Bft)
25.04.2023 12:00 7,9 C 12,5 C 8,8 C 10,1 C 10,1 C 2,2 C 73 % 52 % 1011,3 hPa 0,0 l/m 0,0 km/h (0 Bft) N 0,00 h 3,3 C 10,1 C 0,0 km/h (0 Bft)
25.04.2023 13:00 8,0 C 12,4 C 9,1 C 10,1 C 10,1 C 2,1 C 71 % 52 % 1011,8 hPa 0,0 l/m 0,0 km/h (0 Bft) N 0,00 h 3,2 C 10,1 C 0,0 km/h (0 Bft)
25.04.2023 14:00 7,9 C 12,4 C 8,8 C 10,1 C 10,1 C 2,2 C 72 % 53 % 1012,1 hPa 0,0 l/m 0,0 km/h (0 Bft) N 0,00 h 3,1 C 10,1 C 0,0 km/h (0 Bft)
25.04.2023 15:00 8,9 C 12,4 C 10,9 C 10,1 C 10,1 C 1,2 C 72 % 53 % 1012,2 hPa 0,0 l/m 0,0 km/h (0 Bft) N 0,00 h 4,1 C 10,1 C 0,0 km/h (0 Bft)
25.04.2023 16:00 7,8 C 12,6 C 7,5 C 8,8 C 8,7 C 1,1 C 73 % 65 % 1012,6 hPa 1,4 l/m 0,3 km/h (0 Bft) SW 0,00 h 3,2 C 8,7 C 0,0 km/h (0 Bft)
25.04.2023 17:00 7,5 C 12,5 C 7,6 C 8,7 C 8,7 C 1,2 C 79 % 77 % 1013,0 hPa 0,0 l/m 0,3 km/h (0 Bft) W 0,00 h 4,1 C 8,7 C 0,5 km/h (0 Bft)
25.04.2023 18:00 7,8 C 12,3 C 6,7 C 8,6 C 8,6 C 0,8 C 71 % 73 % 1013,2 hPa 0,0 l/m 0,2 km/h (0 Bft) N 0,00 h 2,8 C 8,6 C 0,5 km/h (0 Bft)
25.04.2023 19:00 7,9 C 12,3 C 6,3 C 8,2 C 8,2 C 0,3 C 66 % 66 % 1013,6 hPa 0,0 l/m 0,2 km/h (0 Bft) N 0,00 h 2,0 C 8,2 C 0,7 km/h (0 Bft)
25.04.2023 20:00 7,3 C 12,2 C 5,5 C 7,1 C 6,8 C 0,0 C 67 % 65 % 1014,1 hPa 0,0 l/m 0,0 km/h (0 Bft) N 0,00 h 1,6 C 6,8 C 0,1 km/h (0 Bft)
25.04.2023 21:00 5,8 C 12,3 C 3,6 C 5,1 C 3,9 C 0,0 C 70 % 68 % 1014,9 hPa 0,0 l/m 0,0 km/h (0 Bft) N 0,00 h 0,7 C 3,9 C 0,0 km/h (0 Bft)
25.04.2023 22:00 4,3 C 12,3 C 3,1 C 3,8 C 2,8 C 0,0 C 76 % 72 % 1015,2 hPa 0,0 l/m 0,0 km/h (0 Bft) N 0,00 h 0,4 C 2,8 C 0,0 km/h (0 Bft)
25.04.2023 23:00 4,6 C 12,1 C 4,0 C 4,4 C 4,1 C 0,0 C 80 % 72 % 1015,6 hPa 0,0 l/m 0,1 km/h (0 Bft) N 0,00 h 1,5 C 4,1 C 0,2 km/h (0 Bft)
26.04.2023 00:00 4,7 C 12,0 C 3,6 C 4,5 C 4,0 C 0,0 C 80 % 71 % 1015,9 hPa 0,0 l/m 0,4 km/h (0 Bft) O-SO 0,00 h 1,5 C 4,0 C 0,8 km/h (0 Bft)
26.04.2023 01:00 4,4 C 11,9 C 3,4 C 4,2 C 3,8 C 0,0 C 80 % 72 % 1016,3 hPa 0,0 l/m 0,0 km/h (0 Bft) N 0,00 h 1,3 C 3,8 C 0,0 km/h (0 Bft)
26.04.2023 02:00 4,2 C 11,8 C 3,2 C 4,0 C 3,6 C 0,0 C 80 % 72 % 1016,7 hPa 0,0 l/m 0,0 km/h (0 Bft) N 0,00 h 1,1 C 3,6 C 0,0 km/h (0 Bft)
26.04.2023 03:00 3,7 C 11,8 C 2,4 C 3,3 C 2,6 C 0,0 C 81 % 72 % 1016,6 hPa 0,0 l/m 0,0 km/h (0 Bft) N 0,00 h 0,8 C 2,6 C 0,0 km/h (0 Bft)
26.04.2023 04:00 3,0 C 11,8 C 1,4 C 2,5 C 1,5 C 0,0 C 82 % 72 % 1016,8 hPa 0,0 l/m 0,0 km/h (0 Bft) N 0,00 h 0,2 C 1,5 C 0,0 km/h (0 Bft)
26.04.2023 05:00 2,0 C 11,9 C 0,4 C 1,4 C 0,2 C 0,0 C 82 % 72 % 1016,8 hPa 0,0 l/m 0,0 km/h (0 Bft) N 0,00 h -0,7 C 0,2 C 0,0 km/h (0 Bft)
26.04.2023 06:00 1,2 C 11,7 C 0,0 C 0,7 C -0,3 C 0,0 C 84 % 72 % 1016,9 hPa 0,0 l/m 0,0 km/h (0 Bft) N 0,00 h -1,2 C -0,3 C 0,0 km/h (0 Bft)
26.04.2023 07:00 2,0 C 11,4 C 2,8 C 7,2 C 7,2 C 5,1 C 86 % 76 % 1017,4 hPa 0,0 l/m 0,0 km/h (0 Bft) W-SW 0,92 h -0,0 C 7,2 C 0,2 km/h (0 Bft)
26.04.2023 08:00 4,3 C 11,1 C 5,1 C 11,9 C 11,9 C 7,7 C 83 % 68 % 1017,8 hPa 0,0 l/m 2,4 km/h (1 Bft) SW 1,00 h 1,7 C 11,9 C 4,9 km/h (1 Bft)
26.04.2023 09:00 5,5 C 11,0 C 5,6 C 9,7 C 9,7 C 4,2 C 74 % 60 % 1018,2 hPa 0,0 l/m 2,7 km/h (1 Bft) S-SW 1,00 h 1,3 C 9,7 C 4,4 km/h (1 Bft)
26.04.2023 10:00 6,5 C 11,0 C 6,4 C 11,1 C 11,1 C 4,6 C 67 % 50 % 1018,1 hPa 0,0 l/m 2,6 km/h (1 Bft) S 0,75 h 0,8 C 11,1 C 5,6 km/h (1 Bft)
26.04.2023 11:00 6,9 C 11,0 C 7,8 C 9,8 C 9,8 C 2,9 C 61 % 43 % 1018,1 hPa 0,0 l/m 4,5 km/h (1 Bft) SW 0,25 h -0,2 C 9,6 C 5,3 km/h (1 Bft)
26.04.2023 12:00 7,4 C 11,0 C 8,6 C 10,4 C 10,4 C 3,0 C 58 % 40 % 1018,5 hPa 0,0 l/m 3,5 km/h (1 Bft) SW 0,17 h -0,3 C 10,3 C 3,3 km/h (1 Bft)
26.04.2023 13:00 8,1 C 10,9 C 10,1 C 11,7 C 11,7 C 3,6 C 56 % 38 % 1018,4 hPa 0,0 l/m 5,0 km/h (1 Bft) SW 0,58 h -0,3 C 11,7 C 7,8 km/h (2 Bft)
26.04.2023 14:00 8,7 C 11,0 C 10,7 C 12,0 C 12,0 C 3,3 C 53 % 36 % 1018,2 hPa 0,0 l/m 3,8 km/h (1 Bft) SW 0,50 h -0,4 C 11,9 C 6,6 km/h (2 Bft)
26.04.2023 15:00 8,9 C 11,1 C 10,0 C 11,6 C 11,6 C 2,7 C 52 % 35 % 1018,3 hPa 0,0 l/m 1,8 km/h (1 Bft) S 0,17 h -0,4 C 11,6 C 3,4 km/h (1 Bft)
26.04.2023 16:00 8,8 C 11,1 C 9,6 C 11,0 C 11,0 C 2,1 C 52 % 36 % 1018,8 hPa 0,0 l/m 1,8 km/h (1 Bft) W 0,00 h -0,5 C 11,0 C 1,8 km/h (1 Bft)
26.04.2023 17:00 9,1 C 11,2 C 9,6 C 11,4 C 11,4 C 2,3 C 50 % 35 % 1018,8 hPa 0,0 l/m 1,2 km/h (1 Bft) W 0,25 h -0,7 C 11,4 C 1,8 km/h (1 Bft)
26.04.2023 18:00 8,5 C 11,2 C 8,4 C 9,3 C 9,3 C 0,9 C 53 % 35 % 1018,8 hPa 0,0 l/m 0,7 km/h (0 Bft) NW 0,00 h -0,6 C 9,3 C 1,3 km/h (1 Bft)
26.04.2023 19:00 8,3 C 11,2 C 7,9 C 9,3 C 9,3 C 1,0 C 56 % 38 % 1018,8 hPa 0,0 l/m 0,1 km/h (0 Bft) N 0,58 h -0,0 C 9,3 C 0,0 km/h (0 Bft)
26.04.2023 20:00 7,3 C 11,3 C 5,9 C 7,0 C 6,5 C 0,0 C 58 % 40 % 1019,3 hPa 0,0 l/m 0,0 km/h (0 Bft) N 0,00 h -0,3 C 6,5 C 0,0 km/h (0 Bft)
26.04.2023 21:00 5,8 C 11,3 C 4,4 C 5,3 C 4,4 C 0,0 C 65 % 49 % 1019,5 hPa 0,0 l/m 0,0 km/h (0 Bft) N 0,00 h -0,2 C 4,4 C 0,0 km/h (0 Bft)
26.04.2023 22:00 4,7 C 11,3 C 3,7 C 4,3 C 3,6 C 0,0 C 72 % 56 % 1019,7 hPa 0,0 l/m 0,0 km/h (0 Bft) N 0,00 h 0,1 C 3,6 C 0,0 km/h (0 Bft)
26.04.2023 23:00 3,7 C 11,3 C 2,4 C 3,2 C 2,1 C 0,0 C 76 % 59 % 1019,7 hPa 0,0 l/m 0,0 km/h (0 Bft) N 0,00 h -0,1 C 2,1 C 0,0 km/h (0 Bft)
27.04.2023 00:00 2,7 C 11,4 C 1,4 C 2,1 C 1,0 C 0,0 C 78 % 63 % 1020,0 hPa 0,0 l/m 0,0 km/h (0 Bft) N 0,00 h -0,7 C 1,0 C 0,0 km/h (0 Bft)
27.04.2023 01:00 1,6 C 11,5 C 0,1 C 0,9 C -0,5 C 0,0 C 80 % 64 % 1020,0 hPa 0,0 l/m 0,0 km/h (0 Bft) N 0,00 h -1,4 C -0,5 C 0,0 km/h (0 Bft)
27.04.2023 02:00 0,4 C 11,4 C -0,9 C -0,3 C -1,8 C 0,0 C 82 % 65 % 1020,1 hPa 0,0 l/m 0,0 km/h (0 Bft) N 0,00 h -2,4 C -1,8 C 0,0 km/h (0 Bft)
27.04.2023 03:00 -0,4 C 11,2 C -1,7 C -1,1 C -2,4 C 0,0 C 83 % 64 % 1019,9 hPa 0,0 l/m 0,0 km/h (0 Bft) N 0,00 h -3,0 C -2,4 C 0,0 km/h (0 Bft)
27.04.2023 04:00 -0,8 C 11,1 C -2,0 C -1,5 C -2,7 C 0,0 C 84 % 65 % 1020,1 hPa 0,0 l/m 0,0 km/h (0 Bft) N 0,00 h -3,2 C -2,7 C 0,0 km/h (0 Bft)
27.04.2023 05:00 -1,3 C 10,9 C -2,5 C -1,9 C -3,1 C 0,0 C 85 % 65 % 1020,3 hPa 0,0 l/m 0,0 km/h (0 Bft) N 0,00 h -3,5 C -3,1 C 0,0 km/h (0 Bft)
27.04.2023 06:00 -1,4 C 10,8 C -2,2 C -1,8 C -2,5 C 0,0 C 86 % 66 % 1020,8 hPa 0,0 l/m 0,0 km/h (0 Bft) N 0,00 h -3,5 C -2,5 C 0,0 km/h (0 Bft)
27.04.2023 07:00 -0,1 C 10,6 C 0,5 C 2,8 C 2,8 C 2,9 C 88 % 71 % 1020,9 hPa 0,0 l/m 0,0 km/h (0 Bft) N 0,52 h -1,9 C 2,8 C 0,0 km/h (0 Bft)
27.04.2023 08:00 3,0 C 10,2 C 4,4 C 10,9 C 10,9 C 7,9 C 88 % 69 % 1021,0 hPa 0,0 l/m 0,0 km/h (0 Bft) N 1,05 h 1,2 C 10,9 C 0,0 km/h (0 Bft)
27.04.2023 09:00 6,2 C 10,2 C 7,0 C 12,3 C 12,3 C 6,1 C 83 % 58 % 1021,3 hPa 0,0 l/m 0,0 km/h (0 Bft) N 0,95 h 3,5 C 12,3 C 0,0 km/h (0 Bft)
27.04.2023 10:00 8,4 C 10,2 C 9,2 C 14,4 C 14,4 C 6,0 C 67 % 45 % 1021,5 hPa 0,0 l/m 0,4 km/h (0 Bft) SW 1,02 h 2,6 C 14,4 C 2,0 km/h (1 Bft)
27.04.2023 11:00 9,3 C 10,4 C 11,8 C 13,3 C 13,3 C 4,0 C 58 % 39 % 1021,7 hPa 0,0 l/m 1,5 km/h (1 Bft) SW 0,98 h 1,4 C 13,3 C 3,2 km/h (1 Bft)
27.04.2023 12:00 10,7 C 10,6 C 12,2 C 15,8 C 15,8 C 5,1 C 53 % 33 % 1021,4 hPa 0,0 l/m 0,6 km/h (0 Bft) N 1,00 h 1,4 C 15,8 C 1,4 km/h (1 Bft)
27.04.2023 13:00 11,3 C 10,7 C 12,5 C 16,3 C 16,3 C 5,1 C 50 % 33 % 1021,3 hPa 0,0 l/m 1,3 km/h (1 Bft) SW 1,00 h 1,2 C 16,3 C 1,9 km/h (1 Bft)
27.04.2023 14:00 11,8 C 10,9 C 13,4 C 16,6 C 16,6 C 4,7 C 48 % 33 % 1021,8 hPa 0,0 l/m 1,2 km/h (1 Bft) W-SW 1,00 h 1,2 C 16,6 C 2,3 km/h (1 Bft)
27.04.2023 15:00 12,8 C 11,1 C 12,8 C 18,3 C 18,3 C 5,5 C 47 % 34 % 1021,5 hPa 0,0 l/m 2,1 km/h (1 Bft) W-SW 1,00 h 1,7 C 18,3 C 3,3 km/h (1 Bft)
27.04.2023 16:00 12,4 C 11,4 C 12,1 C 16,4 C 16,4 C 4,0 C 47 % 35 % 1021,2 hPa 0,0 l/m 1,2 km/h (1 Bft) S-SW 0,73 h 1,3 C 16,4 C 1,3 km/h (1 Bft)
27.04.2023 17:00 12,9 C 11,5 C 12,4 C 16,3 C 16,3 C 3,4 C 47 % 35 % 1021,3 hPa 0,0 l/m 0,9 km/h (0 Bft) SW 0,68 h 2,0 C 16,3 C 1,1 km/h (1 Bft)
27.04.2023 18:00 12,4 C 11,7 C 11,1 C 15,5 C 15,5 C 3,1 C 48 % 33 % 1020,7 hPa 0,0 l/m 0,2 km/h (0 Bft) N 0,60 h 1,6 C 15,5 C 0,5 km/h (0 Bft)
27.04.2023 19:00 11,3 C 11,8 C 9,6 C 12,3 C 12,1 C 1,0 C 50 % 34 % 1020,6 hPa 0,0 l/m 0,1 km/h (0 Bft) N 0,33 h 1,2 C 12,1 C 0,3 km/h (0 Bft)
27.04.2023 20:00 8,8 C 11,9 C 7,1 C 8,4 C 7,6 C 0,0 C 58 % 43 % 1021,0 hPa 0,0 l/m 0,0 km/h (0 Bft) N 0,00 h 1,1 C 7,6 C 0,0 km/h (0 Bft)
27.04.2023 21:00 7,0 C 11,9 C 5,4 C 6,6 C 5,7 C 0,0 C 66 % 50 % 1021,4 hPa 0,0 l/m 0,0 km/h (0 Bft) N 0,00 h 1,0 C 5,7 C 0,0 km/h (0 Bft)
27.04.2023 22:00 5,6 C 12,0 C 4,3 C 5,2 C 4,2 C 0,0 C 73 % 56 % 1021,2 hPa 0,0 l/m 0,0 km/h (0 Bft) N 0,00 h 1,1 C 4,2 C 0,0 km/h (0 Bft)
27.04.2023 23:00 4,4 C 11,9 C 3,2 C 4,0 C 3,1 C 0,0 C 76 % 58 % 1020,9 hPa 0,0 l/m 0,0 km/h (0 Bft) N 0,00 h 0,5 C 3,1 C 0,0 km/h (0 Bft)
28.04.2023 00:00 3,7 C 11,8 C 2,5 C 3,2 C 2,2 C 0,0 C 78 % 60 % 1020,7 hPa 0,0 l/m 0,0 km/h (0 Bft) N 0,00 h 0,3 C 2,2 C 0,0 km/h (0 Bft)
28.04.2023 01:00 3,1 C 11,8 C 1,9 C 2,7 C 1,8 C 0,0 C 80 % 62 % 1020,3 hPa 0,0 l/m 0,0 km/h (0 Bft) N 0,00 h -0,0 C 1,8 C 0,0 km/h (0 Bft)
28.04.2023 02:00 2,5 C 11,8 C 1,4 C 2,1 C 1,2 C 0,0 C 81 % 63 % 1019,9 hPa 0,0 l/m 0,0 km/h (0 Bft) N 0,00 h -0,3 C 1,2 C 0,0 km/h (0 Bft)
28.04.2023 03:00 2,8 C 11,5 C 2,6 C 2,9 C 2,8 C 0,2 C 83 % 64 % 1018,8 hPa 0,0 l/m 0,0 km/h (0 Bft) N 0,00 h 0,2 C 2,8 C 0,0 km/h (0 Bft)
28.04.2023 04:00 3,8 C 11,4 C 3,4 C 3,8 C 3,8 C 0,0 C 82 % 61 % 1018,4 hPa 0,0 l/m 0,0 km/h (0 Bft) N 0,00 h 1,0 C 3,8 C 0,0 km/h (0 Bft)
28.04.2023 05:00 4,4 C 11,2 C 4,5 C 4,7 C 4,7 C 0,3 C 80 % 59 % 1018,0 hPa 0,0 l/m 0,0 km/h (0 Bft) N 0,00 h 1,3 C 4,7 C 0,0 km/h (0 Bft)
28.04.2023 06:00 4,8 C 11,2 C 4,1 C 4,8 C 4,7 C 0,1 C 78 % 58 % 1017,5 hPa 0,0 l/m 0,0 km/h (0 Bft) N 0,08 h 1,3 C 4,7 C 0,0 km/h (0 Bft)
28.04.2023 07:00 5,9 C 11,1 C 6,0 C 7,0 C 7,0 C 1,2 C 78 % 59 % 1016,7 hPa 0,0 l/m 0,2 km/h (0 Bft) N 0,00 h 2,3 C 7,0 C 0,0 km/h (0 Bft)
28.04.2023 08:00 7,7 C 11,1 C 8,0 C 9,8 C 9,8 C 2,1 C 77 % 58 % 1016,4 hPa 0,0 l/m 0,0 km/h (0 Bft) N 0,00 h 4,0 C 9,8 C 0,0 km/h (0 Bft)
28.04.2023 09:00 13,2 C 11,3 C 13,8 C 16,7 C 16,7 C 3,5 C 66 % 55 % 1015,9 hPa 0,0 l/m 0,0 km/h (0 Bft) N 0,92 h 7,0 C 16,7 C 0,0 km/h (0 Bft)
28.04.2023 10:00 14,0 C 11,5 C 13,5 C 15,4 C 15,4 C 1,4 C 65 % 60 % 1016,1 hPa 0,0 l/m 0,0 km/h (0 Bft) N 0,00 h 7,5 C 15,4 C 0,0 km/h (0 Bft)
28.04.2023 11:00 13,2 C 11,8 C 12,2 C 12,9 C 12,2 C 0,0 C 72 % 73 % 1015,9 hPa 0,0 l/m 0,0 km/h (0 Bft) N 0,00 h 8,4 C 12,2 C 0,0 km/h (0 Bft)
28.04.2023 12:00 13,1 C 12,1 C 13,1 C 13,8 C 13,6 C 0,8 C 76 % 72 % 1015,5 hPa 0,0 l/m 0,4 km/h (0 Bft) NO 0,00 h 9,0 C 13,6 C 1,0 km/h (0 Bft)
28.04.2023 13:00 13,7 C 12,1 C 14,1 C 16,5 C 16,5 C 2,9 C 74 % 64 % 1015,0 hPa 0,0 l/m 0,3 km/h (0 Bft) N 0,33 h 9,2 C 16,5 C 0,8 km/h (0 Bft)
28.04.2023 14:00 13,9 C 12,3 C 14,3 C 16,3 C 16,3 C 2,4 C 72 % 60 % 1014,5 hPa 0,0 l/m 1,1 km/h (1 Bft) NO 0,00 h 9,0 C 16,3 C 2,2 km/h (1 Bft)
28.04.2023 15:00 13,2 C 12,4 C 13,2 C 14,5 C 14,5 C 1,3 C 71 % 57 % 1013,8 hPa 0,0 l/m 0,8 km/h (0 Bft) O-NO 0,00 h 8,0 C 14,5 C 0,4 km/h (0 Bft)
28.04.2023 16:00 12,9 C 12,5 C 13,1 C 14,3 C 14,3 C 1,3 C 72 % 57 % 1013,5 hPa 0,0 l/m 0,4 km/h (0 Bft) N 0,00 h 8,0 C 14,3 C 0,3 km/h (0 Bft)
28.04.2023 17:00 13,1 C 12,6 C 12,9 C 13,8 C 13,8 C 0,7 C 72 % 60 % 1013,0 hPa 0,0 l/m 0,0 km/h (0 Bft) N 0,00 h 8,3 C 13,8 C 0,0 km/h (0 Bft)
28.04.2023 18:00 13,1 C 12,7 C 12,5 C 13,3 C 13,3 C 0,2 C 74 % 64 % 1012,8 hPa 0,0 l/m 0,5 km/h (0 Bft) S 0,00 h 8,5 C 13,3 C 1,1 km/h (1 Bft)
28.04.2023 19:00 12,7 C 12,8 C 12,1 C 12,7 C 12,6 C 0,0 C 75 % 64 % 1012,7 hPa 0,0 l/m 0,0 km/h (0 Bft) N 0,00 h 8,4 C 12,6 C 0,0 km/h (0 Bft)
28.04.2023 20:00 11,9 C 12,9 C 11,4 C 11,8 C 11,7 C 0,0 C 77 % 66 % 1012,8 hPa 0,0 l/m 0,0 km/h (0 Bft) N 0,00 h 8,1 C 11,7 C 0,0 km/h (0 Bft)
28.04.2023 21:00 11,6 C 12,9 C 11,2 C 11,7 C 11,6 C 0,1 C 80 % 69 % 1012,7 hPa 0,0 l/m 0,0 km/h (0 Bft) N 0,00 h 8,2 C 11,6 C 0,0 km/h (0 Bft)
28.04.2023 22:00 11,8 C 13,0 C 11,3 C 11,9 C 11,9 C 0,1 C 82 % 73 % 1012,8 hPa 0,0 l/m 0,4 km/h (0 Bft) S 0,00 h 8,8 C 11,9 C 0,6 km/h (0 Bft)
28.04.2023 23:00 11,7 C 13,2 C 10,6 C 11,5 C 11,2 C 0,0 C 83 % 76 % 1012,5 hPa 0,0 l/m 0,1 km/h (0 Bft) N 0,00 h 8,9 C 11,2 C 0,1 km/h (0 Bft)
29.04.2023 00:00 11,0 C 13,5 C 10,1 C 10,9 C 10,6 C 0,0 C 85 % 78 % 1012,2 hPa 1,4 l/m 0,6 km/h (0 Bft) S 0,00 h 8,5 C 10,6 C 0,9 km/h (0 Bft)
29.04.2023 01:00 11,0 C 13,4 C 10,4 C 10,9 C 10,6 C 0,0 C 87 % 90 % 1011,6 hPa 2,1 l/m 0,3 km/h (0 Bft) N 0,00 h 8,9 C 10,6 C 0,6 km/h (0 Bft)
29.04.2023 02:00 10,8 C 13,5 C 10,6 C 10,9 C 10,9 C 0,1 C 88 % 90 % 1011,5 hPa 0,7 l/m 0,7 km/h (0 Bft) S 0,00 h 8,9 C 10,9 C 1,2 km/h (1 Bft)
29.04.2023 03:00 10,8 C 13,5 C 10,5 C 10,8 C 10,8 C 0,1 C 88 % 90 % 1011,6 hPa 0,0 l/m 0,5 km/h (0 Bft) N 0,00 h 8,9 C 10,8 C 0,7 km/h (0 Bft)
29.04.2023 04:00 10,5 C 13,6 C 10,6 C 10,9 C 10,9 C 0,4 C 88 % 90 % 1011,4 hPa 0,0 l/m 0,3 km/h (0 Bft) N 0,00 h 8,6 C 10,9 C 0,2 km/h (0 Bft)
29.04.2023 05:00 10,4 C 13,6 C 10,7 C 11,1 C 11,1 C 0,6 C 88 % 90 % 1011,4 hPa 0,0 l/m 0,1 km/h (0 Bft) N 0,00 h 8,5 C 11,1 C 0,3 km/h (0 Bft)
29.04.2023 06:00 10,4 C 13,6 C 11,0 C 11,3 C 11,3 C 0,9 C 88 % 90 % 1011,7 hPa 1,4 l/m 0,2 km/h (0 Bft) O-NO 0,50 h 8,5 C 11,3 C 0,1 km/h (0 Bft)
29.04.2023 07:00 10,4 C 13,5 C 11,5 C 11,7 C 11,7 C 1,3 C 88 % 90 % 1012,3 hPa 0,7 l/m 3,9 km/h (1 Bft) SW 0,00 h 8,5 C 11,7 C 5,1 km/h (1 Bft)
29.04.2023 08:00 10,8 C 13,5 C 12,6 C 13,5 C 13,5 C 2,7 C 88 % 90 % 1012,2 hPa 0,0 l/m 4,7 km/h (1 Bft) SW 0,25 h 8,9 C 13,5 C 6,6 km/h (2 Bft)
29.04.2023 09:00 11,4 C 13,4 C 12,7 C 14,7 C 14,7 C 3,3 C 88 % 90 % 1012,6 hPa 0,0 l/m 5,0 km/h (1 Bft) SW 0,25 h 9,5 C 14,7 C 5,9 km/h (2 Bft)
29.04.2023 11:00 12,2 C 13,4 C 12,1 C 13,4 C 13,4 C 1,3 C 87 % 90 % 1013,6 hPa 0,0 l/m 1,9 km/h (1 Bft) SW 1,05 h 10,0 C 13,4 C 3,6 km/h (1 Bft)
29.04.2023 12:00 11,5 C 13,4 C 11,7 C 13,2 C 13,2 C 1,7 C 87 % 90 % 1014,5 hPa 0,0 l/m 1,2 km/h (1 Bft) N-NO 0,00 h 9,4 C 13,2 C 1,0 km/h (0 Bft)
29.04.2023 13:00 12,0 C 13,3 C 12,4 C 14,9 C 14,9 C 2,9 C 85 % 82 % 1014,9 hPa 0,0 l/m 1,7 km/h (1 Bft) SW 0,25 h 9,5 C 14,9 C 2,3 km/h (1 Bft)
29.04.2023 14:00 12,0 C 13,3 C 12,5 C 14,7 C 14,7 C 2,7 C 83 % 77 % 1015,7 hPa 0,0 l/m 1,7 km/h (1 Bft) W-SW 0,25 h 9,2 C 14,7 C 3,0 km/h (1 Bft)
29.04.2023 15:00 11,8 C 13,3 C 12,2 C 14,0 C 14,0 C 2,2 C 82 % 75 % 1016,5 hPa 0,0 l/m 1,0 km/h (0 Bft) O-SO 0,00 h 8,8 C 14,0 C 2,2 km/h (1 Bft)
29.04.2023 16:00 12,2 C 13,2 C 12,4 C 13,9 C 13,9 C 1,7 C 80 % 73 % 1016,3 hPa 0,0 l/m 0,8 km/h (0 Bft) W-SW 0,00 h 8,8 C 13,9 C 2,3 km/h (1 Bft)
29.04.2023 17:00 12,4 C 13,2 C 12,2 C 13,6 C 13,6 C 1,3 C 78 % 68 % 1016,3 hPa 0,0 l/m 0,6 km/h (0 Bft) NO 0,00 h 8,6 C 13,6 C 1,3 km/h (1 Bft)
29.04.2023 18:00 11,9 C 13,2 C 11,5 C 12,5 C 12,5 C 0,6 C 79 % 71 % 1016,7 hPa 0,0 l/m 0,4 km/h (0 Bft) N 0,00 h 8,4 C 12,5 C 1,1 km/h (1 Bft)
29.04.2023 19:00 11,5 C 13,2 C 10,9 C 11,6 C 11,6 C 0,1 C 81 % 74 % 1017,1 hPa 0,0 l/m 0,1 km/h (0 Bft) N 0,00 h 8,3 C 11,6 C 0,0 km/h (0 Bft)
29.04.2023 20:00 11,3 C 13,3 C 10,4 C 11,2 C 11,1 C 0,0 C 81 % 76 % 1017,8 hPa 0,0 l/m 0,0 km/h (0 Bft) N 0,00 h 8,2 C 11,1 C 0,0 km/h (0 Bft)
29.04.2023 21:00 10,9 C 13,3 C 10,0 C 10,8 C 10,6 C 0,0 C 82 % 76 % 1018,5 hPa 0,0 l/m 0,0 km/h (0 Bft) N 0,00 h 8,0 C 10,6 C 0,0 km/h (0 Bft)
29.04.2023 22:00 10,6 C 13,3 C 9,8 C 10,5 C 10,4 C 0,0 C 83 % 76 % 1019,0 hPa 0,0 l/m 0,0 km/h (0 Bft) N 0,00 h 7,8 C 10,4 C 0,3 km/h (0 Bft)
29.04.2023 23:00 10,4 C 13,3 C 9,6 C 10,3 C 10,3 C 0,0 C 83 % 76 % 1019,2 hPa 0,0 l/m 0,0 km/h (0 Bft) N 0,00 h 7,6 C 10,3 C 0,0 km/h (0 Bft)
30.04.2023 00:00 10,1 C 13,2 C 9,5 C 10,0 C 9,9 C 0,0 C 84 % 76 % 1019,5 hPa 0,0 l/m 0,0 km/h (0 Bft) N 0,00 h 7,5 C 9,9 C 0,2 km/h (0 Bft)
30.04.2023 01:00 9,9 C 13,1 C 9,3 C 9,8 C 9,7 C 0,0 C 83 % 75 % 1019,8 hPa 0,0 l/m 0,0 km/h (0 Bft) N 0,00 h 7,3 C 9,7 C 0,1 km/h (0 Bft)
30.04.2023 02:00 9,2 C 13,1 C 7,8 C 8,8 C 8,0 C 0,0 C 83 % 75 % 1020,4 hPa 0,0 l/m 0,0 km/h (0 Bft) N 0,00 h 6,5 C 8,0 C 0,8 km/h (0 Bft)
30.04.2023 03:00 7,6 C 13,1 C 6,1 C 7,1 C 6,1 C 0,0 C 83 % 75 % 1020,7 hPa 0,0 l/m 0,0 km/h (0 Bft) N 0,00 h 5,0 C 6,1 C 0,0 km/h (0 Bft)
30.04.2023 04:00 6,2 C 13,1 C 4,8 C 5,7 C 4,7 C 0,0 C 84 % 74 % 1021,5 hPa 0,0 l/m 0,0 km/h (0 Bft) N 0,00 h 3,7 C 4,7 C 0,0 km/h (0 Bft)
30.04.2023 05:00 4,9 C 13,0 C 3,4 C 4,4 C 3,2 C 0,0 C 85 % 75 % 1022,2 hPa 0,0 l/m 0,0 km/h (0 Bft) N 0,00 h 2,6 C 3,2 C 0,0 km/h (0 Bft)
30.04.2023 06:00 4,0 C 12,9 C 2,8 C 3,6 C 2,7 C 0,0 C 85 % 76 % 1022,8 hPa 0,0 l/m 0,0 km/h (0 Bft) N 0,00 h 1,8 C 2,7 C 0,0 km/h (0 Bft)
30.04.2023 07:00 5,0 C 12,6 C 5,2 C 6,3 C 6,3 C 1,3 C 88 % 79 % 1023,6 hPa 0,0 l/m 0,0 km/h (0 Bft) N 0,00 h 3,1 C 6,3 C 0,0 km/h (0 Bft)
30.04.2023 08:00 6,4 C 12,3 C 7,5 C 9,8 C 9,8 C 3,4 C 87 % 73 % 1024,0 hPa 0,0 l/m 0,1 km/h (0 Bft) N 0,17 h 4,4 C 9,8 C 0,0 km/h (0 Bft)
30.04.2023 09:00 7,3 C 12,1 C 8,7 C 10,5 C 10,5 C 3,2 C 84 % 66 % 1024,1 hPa 0,0 l/m 0,1 km/h (0 Bft) N 0,42 h 4,7 C 10,5 C 0,2 km/h (0 Bft)
30.04.2023 10:00 8,5 C 12,1 C 10,1 C 12,7 C 12,7 C 4,2 C 80 % 61 % 1024,2 hPa 0,0 l/m 0,0 km/h (0 Bft) N 1,00 h 5,1 C 12,7 C 0,0 km/h (0 Bft)
30.04.2023 11:00 9,5 C 12,1 C 11,9 C 13,8 C 13,8 C 4,2 C 74 % 55 % 1024,3 hPa 0,0 l/m 0,4 km/h (0 Bft) W-SW 1,00 h 5,2 C 13,8 C 0,6 km/h (0 Bft)
30.04.2023 12:00 11,4 C 12,1 C 13,9 C 17,3 C 17,3 C 5,8 C 66 % 47 % 1024,1 hPa 0,0 l/m 0,6 km/h (0 Bft) S-SW 1,00 h 5,4 C 17,3 C 1,9 km/h (1 Bft)
30.04.2023 13:00 13,2 C 12,2 C 15,1 C 19,1 C 19,1 C 5,9 C 57 % 43 % 1024,1 hPa 0,0 l/m 0,8 km/h (0 Bft) SO 1,00 h 5,0 C 19,1 C 2,3 km/h (1 Bft)
30.04.2023 14:00 14,6 C 12,4 C 16,5 C 21,2 C 21,2 C 6,6 C 51 % 38 % 1023,8 hPa 0,0 l/m 0,5 km/h (0 Bft) N 1,00 h 4,6 C 21,2 C 0,8 km/h (0 Bft)
30.04.2023 15:00 14,3 C 12,6 C 14,5 C 20,8 C 20,8 C 6,6 C 49 % 36 % 1023,3 hPa 0,0 l/m 0,7 km/h (0 Bft) O-NO 1,00 h 3,7 C 20,8 C 1,4 km/h (1 Bft)
30.04.2023 16:00 14,6 C 12,9 C 14,0 C 21,3 C 21,3 C 6,7 C 47 % 35 % 1022,9 hPa 0,0 l/m 0,5 km/h (0 Bft) N 1,00 h 3,3 C 21,3 C 0,9 km/h (0 Bft)
30.04.2023 17:00 15,2 C 13,1 C 14,1 C 19,4 C 19,4 C 4,2 C 44 % 33 % 1022,8 hPa 0,0 l/m 0,4 km/h (0 Bft) N 0,83 h 3,0 C 19,4 C 0,5 km/h (0 Bft)
30.04.2023 18:00 14,8 C 13,3 C 13,2 C 18,5 C 18,5 C 3,8 C 45 % 34 % 1022,4 hPa 0,0 l/m 0,2 km/h (0 Bft) N 1,00 h 2,9 C 18,5 C 0,3 km/h (0 Bft)
30.04.2023 19:00 13,5 C 13,4 C 12,2 C 16,7 C 16,7 C 3,1 C 48 % 36 % 1022,2 hPa 0,0 l/m 0,1 km/h (0 Bft) N 1,00 h 2,8 C 16,7 C 0,0 km/h (0 Bft)
30.04.2023 20:00 11,6 C 13,4 C 9,3 C 11,8 C 11,1 C 0,5 C 58 % 47 % 1022,8 hPa 0,0 l/m 0,0 km/h (0 Bft) N 0,27 h 3,5 C 11,1 C 0,0 km/h (0 Bft)
30.04.2023 21:00 8,9 C 13,5 C 6,5 C 8,2 C 6,7 C 0,0 C 68 % 57 % 1022,5 hPa 0,0 l/m 0,0 km/h (0 Bft) N 0,00 h 3,4 C 6,7 C 0,0 km/h (0 Bft)
30.04.2023 22:00 6,6 C 13,5 C 4,6 C 5,8 C 4,2 C 0,0 C 75 % 64 % 1022,4 hPa 0,0 l/m 0,0 km/h (0 Bft) N 0,00 h 2,4 C 4,2 C 0,0 km/h (0 Bft)
30.04.2023 23:00 5,0 C 13,6 C 3,6 C 4,3 C 3,0 C 0,0 C 79 % 68 % 1022,2 hPa 0,0 l/m 0,0 km/h (0 Bft) N 0,00 h 1,7 C 3,0 C 0,0 km/h (0 Bft)
Min-Datum _ 27.04.23 27.04.23 27.04.23 27.04.23 27.04.23 24.04.23 30.04.23 27.04.23 24.04.23 - 24.04.23 - - 27.04.23 27.04.23 24.04.23
_ Min-Zeit 06:00 08:52 05:57 05:46 05:46 00:00 17:45 12:40 05:21 - 00:00 - - 06:00 05:46 00:00
Minimum _ -1,6 C 10,1 C -2,7 C -2,1 C -3,4 C 0,0 C 43 % 31 % 1003,6 hPa - 0,0 km/h (0 Bft) - - -3,8 C -3,4 C 0,0 km/h (0 Bft)
Max-Datum _ 24.04.23 24.04.23 24.04.23 24.04.23 24.04.23 27.04.23 27.04.23 29.04.23 30.04.23 29.04.23 24.04.23 - 29.04.23 29.04.23 24.04.23 24.04.23
_ Max-Zeit 15:11 00:00 14:30 15:11 15:11 08:11 08:22 01:00 11:05 01:45 18:06 - 11:02 11:02 15:11 13:19
Maximum _ 16,3 C 15,3 C 18,1 C 21,8 C 21,8 C 10,3 C 89 % 90 % 1024,4 hPa 2,1 l/m 13,4 km/h
SW (3 Bft)
- 1,00 h 10,9 C 21,8 C 27,5 km/h
SW (4 Bft)
Durchschnitt _ 8,9 C 12,5 C 8,6 C 10,2 C 10,0 C 1,5 C 73 % 61 % 1015,6 hPa #7,6 l/m 1,1 km/h (1 Bft) SW #34:38 h 4,1 C 10,0 C 1,7 km/h (1 Bft)
2023 www.wetterstation-wechselburg.de